createdAt,value
2023-05-02T00:10:57.350Z,13.70
2023-05-02T00:26:00.225Z,13.70
2023-05-02T00:41:03.132Z,14.40
2023-05-02T00:56:06.484Z,13.70
2023-05-02T01:11:19.997Z,13.60
2023-05-02T01:26:41.370Z,13.10
2023-05-02T01:41:45.059Z,13.10
2023-05-02T01:56:49.235Z,12.90
2023-05-02T02:12:03.740Z,12.90
2023-05-02T02:27:06.459Z,12.90
2023-05-02T02:42:22.973Z,13.20
2023-05-02T02:57:48.540Z,13.50
2023-05-02T03:12:55.468Z,13.60
2023-05-02T03:27:59.080Z,13.70
2023-05-02T03:43:01.768Z,13.70
2023-05-02T03:58:08.299Z,13.80
2023-05-02T04:13:11.050Z,13.60
2023-05-02T04:28:16.692Z,13.00
2023-05-02T04:58:32.148Z,12.10
2023-05-02T05:13:38.956Z,12.20
2023-05-02T05:28:43.990Z,12.30
2023-05-02T05:44:04.396Z,12.10
2023-05-02T05:59:07.822Z,11.90
2023-05-02T06:14:13.922Z,12.10
2023-05-02T06:29:18.340Z,12.40
2023-05-02T06:44:21.177Z,12.60
2023-05-02T06:59:24.143Z,12.50
2023-05-02T07:14:28.776Z,12.20
2023-05-02T07:29:32.068Z,11.40
2023-05-02T07:44:37.707Z,11.20
2023-05-02T08:00:45.671Z,11.20
2023-05-02T08:15:48.675Z,11.20
2023-05-02T08:31:29.129Z,11.50
2023-05-02T08:47:01.475Z,12.10
2023-05-02T09:03:08.649Z,12.10
2023-05-02T09:18:46.911Z,12.60
2023-05-02T09:34:10.554Z,12.80
2023-05-02T09:49:50.341Z,13.50
2023-05-02T10:05:31.147Z,13.90
2023-05-02T10:37:43.885Z,11.50
2023-05-02T10:52:51.414Z,11.20
2023-05-02T11:08:22.988Z,11.80
2023-05-02T11:23:55.230Z,12.50
2023-05-02T11:39:20.305Z,13.20
2023-05-02T11:54:25.816Z,12.90
2023-05-02T12:09:30.737Z,13.20
2023-05-02T12:24:33.988Z,13.40
2023-05-02T12:39:43.537Z,13.40
2023-05-02T12:54:46.774Z,13.70
2023-05-02T13:09:49.347Z,14.60
2023-05-02T13:25:35.693Z,13.80
2023-05-02T13:40:38.742Z,14.40
2023-05-02T13:55:41.741Z,14.20
2023-05-02T14:10:44.935Z,13.60
2023-05-02T14:25:47.842Z,14.20
2023-05-02T14:41:15.698Z,13.60
2023-05-02T14:56:42.064Z,13.70
2023-05-02T15:11:49.507Z,13.70
2023-05-02T15:26:52.746Z,14.20
2023-05-02T15:42:22.271Z,13.90
2023-05-02T15:58:08.625Z,15.30
2023-05-02T16:13:11.390Z,14.30
2023-05-02T16:28:13.837Z,14.60
2023-05-02T16:43:16.922Z,14.60
2023-05-02T16:58:20.635Z,13.50
2023-05-02T17:13:23.822Z,13.70
2023-05-02T17:28:26.314Z,13.30
2023-05-02T17:43:28.825Z,13.80
2023-05-02T17:58:32.541Z,13.20
2023-05-02T18:13:36.240Z,13.00
2023-05-02T18:28:49.310Z,13.00
2023-05-02T18:43:58.778Z,13.30
2023-05-02T18:59:08.354Z,13.30
2023-05-02T19:14:11.756Z,13.40
2023-05-02T19:29:23.971Z,13.10
2023-05-02T19:44:26.565Z,12.30
2023-05-02T19:59:29.502Z,12.00
2023-05-02T20:14:32.015Z,11.80
2023-05-02T20:29:54.398Z,12.00
2023-05-02T20:44:59.603Z,11.70
2023-05-02T21:00:02.692Z,11.80
2023-05-02T21:15:07.224Z,11.70
2023-05-02T21:30:10.138Z,11.60
2023-05-02T21:45:12.883Z,11.50
2023-05-02T22:00:15.437Z,11.10
2023-05-02T22:15:17.893Z,10.80
2023-05-02T22:30:20.447Z,11.60
2023-05-02T22:45:37.453Z,11.70
2023-05-02T23:00:53.675Z,11.60
2023-05-02T23:15:56.493Z,10.90
2023-05-02T23:31:19.452Z,10.60
2023-05-02T23:46:22.154Z,10.20
